BA4473 / G-LCAB 7700 Squawk Report (17th of January, 2020)

Aircraft E190 Reg No. G-LCAB Age 8 years old
Model Emb-190 Jet engines 2 First flight 09-08-11
Registered 11-07-19 Rollout N/A Delivered 31-08-11
Construction No. 19000465 Line No. N/A Series 100LR
ADSHEX 407777 Airline name BA CityFlyer Owner N/A
Airfield based London-City Airport~Gtr London~G First tracked 2019-07-25 06:00:00

Flight history for G-LCAB

Route Flight No Date Playback
Václav Havel Airport Prague (PRG) - City (LCY) BA7338 2020-02-17 16:07:00
City (LCY) - Václav Havel Airport Prague (PRG) BA7339 2020-02-17 13:27:00
Rotterdam The Hague (RTM) - City (LCY) BA4454 2020-02-17 11:55:00
City (LCY) - Rotterdam The Hague (RTM) BA4453 2020-02-17 09:19:00
Linate (LIN) - City (LCY) BA7300 2020-02-17 08:22:00
City (LCY) - Linate (LIN) BA7307 2020-02-16 20:39:00
Linate (LIN) - City (LCY) BA7304 2020-02-16 18:03:00
City (LCY) - Linate (LIN) BA7303 2020-02-15 13:47:00
Aix Les Bains (CMF) - City (LCY) BA8742 2020-02-15 11:34:00
City (LCY) - Aix Les Bains (CMF) BA8741 2020-02-15 10:03:00
Zurich (ZRH) - City (LCY) BA8756 2020-02-15 07:29:00
City (LCY) - Zurich (ZRH) BA8753 2020-02-14 19:07:00
Fiumicino (FCO) - City (LCY) BA7348 2020-02-14 17:38:00
City (LCY) - Fiumicino (FCO) BA7349 2020-02-14 14:27:00
Edinburgh (EDI) - City (LCY) BA8703 2020-02-14 10:09:00
City (LCY) - Edinburgh (EDI) BA8700 2020-02-14 08:09:00
Glasgow (GLA) - City (LCY) BA2215 2020-02-13 21:05:00
City (LCY) - Glasgow (GLA) BA8728 2020-02-13 20:00:00
Zurich (ZRH) - City (LCY) BA8766 2020-02-13 17:28:00
City (LCY) - Zurich (ZRH) BA8765 2020-02-13 14:24:00
Time Lat Lon Altitude Heading Speed Vertical Rate
2020-01-17 20:32:50 GMT 53.364750 -2.287014 0 225 3 0
2020-01-17 20:32:45 GMT 53.365082 -2.286451 0 236 8 0
2020-01-17 20:32:33 GMT 53.365082 -2.286451 0 241 8 0
2020-01-17 20:32:19 GMT 53.364956 -2.285686 0 315 11 0
2020-01-17 20:30:15 GMT 53.358467 -2.278573 0 5 13 0
2020-01-17 20:29:44 GMT 53.356663 -2.278875 0 5 13 0
2020-01-17 20:29:32 GMT 53.356075 -2.279369 0 50 14 0
2020-01-17 20:28:57 GMT 53.354546 -2.281501 0 14 11 0
2020-01-17 20:28:52 GMT 53.354301 -2.281586 0 8 10 0
2020-01-17 20:28:40 GMT 53.353855 -2.281683 0 8 6 0
2020-01-17 20:28:31 GMT 53.353649 -2.281743 0 14 5 0
2020-01-17 20:28:24 GMT 53.353508 -2.281804 0 19 5 0
2020-01-17 20:28:19 GMT 53.353432 -2.281841 0 19 4 0
2020-01-17 20:27:44 GMT 53.353317 -2.281919 0 19 0 0
2020-01-17 20:27:39 GMT 53.353321 -2.281925 0 19 0 0
2020-01-17 20:27:24 GMT 53.353317 -2.281919 0 19 0 0
2020-01-17 20:27:14 GMT 53.353321 -2.281925 0 19 0 0
2020-01-17 20:26:58 GMT 53.353317 -2.281919 0 19 0 0
2020-01-17 20:26:48 GMT 53.353321 -2.281905 0 19 0 0
2020-01-17 20:24:51 GMT 53.353317 -2.281919 0 19 0 0
2020-01-17 20:24:32 GMT 53.353226 -2.281978 0 22 4 0
2020-01-17 20:22:46 GMT 53.356247 -2.269775 200 232 73 -128
2020-01-17 20:22:38 GMT 53.358780 -2.264557 200 232 113 -192
2020-01-17 20:22:30 GMT 53.361061 -2.259710 250 233 120 -576
2020-01-17 20:22:27 GMT 53.362106 -2.257455 275 231 120 -640
2020-01-17 20:22:20 GMT 53.364532 -2.252590 350 231 118 -576
2020-01-17 20:22:17 GMT 53.365585 -2.250392 400 234 115 -768
2020-01-17 20:22:07 GMT 53.368790 -2.243473 475 231 117 -704
2020-01-17 20:22:04 GMT 53.371395 -2.238222 525 232 115 -640
2020-01-17 20:22:00 GMT 53.371395 -2.238222 575 232 115 -640
2020-01-17 20:21:57 GMT 53.372326 -2.236283 600 231 115 -640
2020-01-17 20:21:53 GMT 53.373631 -2.233537 625 232 116 -576
2020-01-17 20:21:50 GMT 53.375748 -2.229126 675 232 117 -832
2020-01-17 20:21:47 GMT 53.375748 -2.229126 725 231 117 -512
2020-01-17 20:21:40 GMT 53.378174 -2.224104 800 231 117 -512
2020-01-17 20:21:37 GMT 53.379078 -2.222308 800 231 117 -512
2020-01-17 20:21:32 GMT 53.381104 -2.218218 850 231 115 -832
2020-01-17 20:21:29 GMT 53.381870 -2.216653 900 231 115 -896
2020-01-17 20:21:26 GMT 53.382751 -2.214922 925 232 110 -576
2020-01-17 20:21:22 GMT 53.384033 -2.212254 1,000 232 110 -576
2020-01-17 20:21:19 GMT 53.385128 -2.209948 1,000 232 110 -576
2020-01-17 20:21:16 GMT 53.385921 -2.208333 1,050 232 110 -768
2020-01-17 20:21:12 GMT 53.387512 -2.205113 1,100 231 111 -512
2020-01-17 20:21:09 GMT 53.388386 -2.203324 1,100 232 111 -512
2020-01-17 20:21:06 GMT 53.389206 -2.201582 1,150 231 110 -704
2020-01-17 20:21:02 GMT 53.390625 -2.198678 1,175 231 110 -640
2020-01-17 20:20:59 GMT 53.391598 -2.196700 1,200 231 110 -704
2020-01-17 20:20:56 GMT 53.392391 -2.195085 1,225 231 111 -704
2020-01-17 20:20:52 GMT 53.393921 -2.192086 1,300 231 110 -576
2020-01-17 20:20:49 GMT 53.395798 -2.188084 1,350 233 107 -768
2020-01-17 20:20:42 GMT 53.396851 -2.185730 1,400 232 106 -704
2020-01-17 20:20:39 GMT 53.397930 -2.183533 1,450 231 107 -512
2020-01-17 20:20:36 GMT 53.398865 -2.181649 1,450 232 107 -384
2020-01-17 20:20:32 GMT 53.400101 -2.179060 1,625 231 112 -768
2020-01-17 20:20:29 GMT 53.401108 -2.176941 1,550 231 110 -704
2020-01-17 20:20:26 GMT 53.401981 -2.175212 1,550 231 109 -640
2020-01-17 20:20:23 GMT 53.403145 -2.172870 1,575 231 111 -704
2020-01-17 20:20:19 GMT 53.404308 -2.170446 1,600 231 112 -768
2020-01-17 20:20:15 GMT 53.405411 -2.168152 1,650 232 113 -576
2020-01-17 20:20:12 GMT 53.406403 -2.166084 1,750 231 112 -640
2020-01-17 20:20:09 GMT 53.407707 -2.163418 1,750 232 112 -448
2020-01-17 20:20:06 GMT 53.408524 -2.161639 1,750 232 112 -448
2020-01-17 20:19:59 GMT 53.411774 -2.154968 1,875 232 111 -576
2020-01-17 20:19:53 GMT 53.413013 -2.152351 1,900 232 112 -640
2020-01-17 20:19:49 GMT 53.414108 -2.150024 1,950 232 113 -640
2020-01-17 20:19:39 GMT 53.417679 -2.142648 2,050 232 115 -640
2020-01-17 20:19:36 GMT 53.418320 -2.141235 2,075 232 116 -576
2020-01-17 20:19:29 GMT 53.420517 -2.136762 2,150 232 116 -768
2020-01-17 20:19:26 GMT 53.421764 -2.134013 2,175 232 118 -640
2020-01-17 20:19:21 GMT 53.424500 -2.128366 2,250 231 122 -832
2020-01-17 20:19:18 GMT 53.425369 -2.126561 2,300 232 125 -704
2020-01-17 20:19:12 GMT 53.427025 -2.123027 2,375 231 128 -704
2020-01-17 20:19:08 GMT 53.428299 -2.120440 2,400 232 130 -704
2020-01-17 20:19:05 GMT 53.429077 -2.118870 2,425 232 145 -832
2020-01-17 20:19:01 GMT 53.432053 -2.112749 2,525 232 136 -832
2020-01-17 20:18:58 GMT 53.433216 -2.110264 2,525 232 138 -832
2020-01-17 20:18:55 GMT 53.433216 -2.110264 2,575 232 138 -832
2020-01-17 20:18:51 GMT 53.435257 -2.106001 2,600 231 140 -832
2020-01-17 20:18:48 GMT 53.435871 -2.104851 2,650 232 143 -768
2020-01-17 20:18:45 GMT 53.437271 -2.101842 2,675 232 143 -704
2020-01-17 20:18:40 GMT 53.439377 -2.097290 2,750 232 145 -768
2020-01-17 20:18:37 GMT 53.440620 -2.094673 2,775 232 145 -832
2020-01-17 20:18:34 GMT 53.441711 -2.092425 2,825 232 146 -768
2020-01-17 20:18:30 GMT 53.444016 -2.087564 2,925 233 149 -960
2020-01-17 20:18:27 GMT 53.444855 -2.085706 2,950 232 151 -896
2020-01-17 20:18:23 GMT 53.446579 -2.082071 3,025 232 153 -896
2020-01-17 20:18:20 GMT 53.448345 -2.078274 3,025 232 158 -960
2020-01-17 20:18:17 GMT 53.450348 -2.074073 3,125 233 160 -896
2020-01-17 20:18:11 GMT 53.451874 -2.070687 3,175 233 164 -832
2020-01-17 20:18:07 GMT 53.454212 -2.065591 3,250 233 164 -896
2020-01-17 20:18:04 GMT 53.454956 -2.063976 3,275 233 164 -896
2020-01-17 20:18:01 GMT 53.456585 -2.060340 3,325 233 164 -768
2020-01-17 20:17:57 GMT 53.458401 -2.056382 3,350 233 164 -576
2020-01-17 20:17:54 GMT 53.459793 -2.053423 3,400 231 164 -512
2020-01-17 20:17:51 GMT 53.461288 -2.050323 3,425 231 165 -384
2020-01-17 20:17:47 GMT 53.462952 -2.047067 3,450 228 167 -320
2020-01-17 20:17:44 GMT 53.464737 -2.043614 3,450 227 168 -128
2020-01-17 20:17:41 GMT 53.466522 -2.040475 3,450 226 171 -64
2020-01-17 20:17:37 GMT 53.468643 -2.036914 3,450 225 174 -128
2020-01-17 20:17:33 GMT 53.470924 -2.033117 3,475 225 175 -320
2020-01-17 20:17:27 GMT 53.474461 -2.026816 3,500 231 173 -448
2020-01-17 20:17:24 GMT 53.476139 -2.022938 3,550 241 171 -1024
2020-01-17 20:17:21 GMT 53.477097 -2.019993 3,600 244 170 -1024
2020-01-17 20:17:18 GMT 53.478241 -2.016227 3,650 241 172 -960
2020-01-17 20:17:15 GMT 53.479118 -2.013568 3,675 238 174 -896
2020-01-17 20:17:11 GMT 53.480934 -2.009206 3,725 233 179 -512
2020-01-17 20:17:08 GMT 53.482376 -2.006055 3,750 233 183 -256
2020-01-17 20:17:05 GMT 53.484100 -2.002337 3,750 233 184 -256
2020-01-17 20:17:02 GMT 53.485382 -1.999512 3,775 233 187 -320
2020-01-17 20:16:59 GMT 53.487217 -1.995634 3,775 232 190 -448
2020-01-17 20:16:56 GMT 53.490417 -1.988918 4,075 231 194 -1088
2020-01-17 20:16:50 GMT 53.492058 -1.985375 3,900 231 193 -960
2020-01-17 20:16:47 GMT 53.493759 -1.981934 3,950 231 194 -1088
2020-01-17 20:16:43 GMT 53.496201 -1.977054 4,050 230 195 -1152
2020-01-17 20:16:39 GMT 53.499161 -1.971340 4,125 229 195 -1216
2020-01-17 20:16:36 GMT 53.502346 -1.965179 4,225 229 194 -1152
2020-01-17 20:16:33 GMT 53.502346 -1.965179 4,350 234 194 -960
2020-01-17 20:16:30 GMT 53.503979 -1.962029 4,300 231 194 -1088
2020-01-17 20:16:27 GMT 53.505707 -1.958548 4,325 232 194 -1024
2020-01-17 20:16:24 GMT 53.508537 -1.951931 4,400 236 194 -960
2020-01-17 20:16:21 GMT 53.510056 -1.947562 4,450 242 193 -1024
2020-01-17 20:16:18 GMT 53.510056 -1.947562 4,500 245 193 -1024
2020-01-17 20:16:15 GMT 53.511147 -1.943449 4,525 251 193 -1088
2020-01-17 20:16:12 GMT 53.512032 -1.938845 4,775 256 193 -1152
2020-01-17 20:16:09 GMT 53.512573 -1.935085 4,625 260 193 -1088
2020-01-17 20:16:06 GMT 53.513195 -1.929474 4,650 261 193 -1024
2020-01-17 20:16:03 GMT 53.513626 -1.921352 4,800 272 195 -1280
2020-01-17 20:16:00 GMT 53.513443 -1.917114 4,800 274 195 -1280
2020-01-17 20:15:57 GMT 53.512497 -1.910975 4,850 281 196 -1472
2020-01-17 20:15:54 GMT 53.512497 -1.910975 4,950 292 198 -1536
2020-01-17 20:15:48 GMT 53.510540 -1.904270 5,050 303 200 -1728
2020-01-17 20:15:45 GMT 53.509003 -1.900716 5,175 314 203 -1728
2020-01-17 20:15:42 GMT 53.506306 -1.896353 5,225 317 205 -1792
2020-01-17 20:15:39 GMT 53.504490 -1.894011 5,350 326 207 -1856
2020-01-17 20:15:36 GMT 53.502533 -1.891830 5,475 328 208 -1792
2020-01-17 20:15:33 GMT 53.500122 -1.889256 6,900 320 202 -2240
2020-01-17 20:15:30 GMT 53.497147 -1.886117 5,575 328 209 -1792
2020-01-17 20:15:27 GMT 53.492340 -1.880859 5,900 326 206 -2048
2020-01-17 20:15:24 GMT 53.489964 -1.878258 5,850 327 207 -1984
2020-01-17 20:15:18 GMT 53.487171 -1.874946 6,000 324 204 -2368
2020-01-17 20:15:15 GMT 53.485355 -1.872603 6,125 322 204 -2304
2020-01-17 20:15:11 GMT 53.482330 -1.867999 6,300 310 198 -2240
2020-01-17 20:15:06 GMT 53.478142 -1.856609 6,525 297 196 -2048
2020-01-17 20:15:03 GMT 53.477627 -1.853701 6,725 281 196 -1728
2020-01-17 20:15:00 GMT 53.477161 -1.849500 6,725 275 198 -1536
2020-01-17 20:14:57 GMT 53.477051 -1.842957 6,800 276 197 -1600
2020-01-17 20:14:54 GMT 53.477051 -1.842957 6,900 261 204 -1280
2020-01-17 20:14:51 GMT 53.477280 -1.839818 6,925 260 205 -1216
2020-01-17 20:14:48 GMT 53.477814 -1.835848 7,000 250 212 -896
2020-01-17 20:14:45 GMT 53.478928 -1.830558 7,025 246 216 -512
2020-01-17 20:14:42 GMT 53.480282 -1.826073 7,125 233 226 -384
2020-01-17 20:14:39 GMT 53.481632 -1.822600 7,050 234 225 -384
2020-01-17 20:14:36 GMT 53.484100 -1.817672 7,075 227 231 -448
2020-01-17 20:14:33 GMT 53.486160 -1.814471 7,100 217 240 -512
2020-01-17 20:14:30 GMT 53.492012 -1.808140 7,125 212 245 -448
2020-01-17 20:14:27 GMT 53.495224 -1.805760 7,150 201 256 -384
2020-01-17 20:14:24 GMT 53.495224 -1.805760 7,175 198 259 -320
2020-01-17 20:14:21 GMT 53.498203 -1.804181 7,175 196 262 -256
2020-01-17 20:14:18 GMT 53.502907 -1.802000 7,200 195 267 -512
2020-01-17 20:14:15 GMT 53.505745 -1.800708 7,200 195 269 -768
2020-01-17 20:14:12 GMT 53.509144 -1.799254 7,225 196 270 -960
2020-01-17 20:14:09 GMT 53.515335 -1.796426 7,350 196 271 -1408
2020-01-17 20:14:06 GMT 53.515896 -1.796184 7,350 196 271 -1408
2020-01-17 20:14:03 GMT 53.519989 -1.794303 7,450 196 272 -1536
2020-01-17 20:14:00 GMT 53.524796 -1.792106 7,500 196 272 -1600
2020-01-17 20:13:57 GMT 53.527531 -1.790852 7,600 196 272 -1664
2020-01-17 20:13:54 GMT 53.531158 -1.789124 7,775 196 273 -1664
2020-01-17 20:13:51 GMT 53.534840 -1.787459 8,025 195 274 -1664
2020-01-17 20:13:48 GMT 53.539730 -1.785198 7,875 195 274 -1664
2020-01-17 20:13:45 GMT 53.542664 -1.783905 7,950 195 274 -1600
2020-01-17 20:13:41 GMT 53.548233 -1.781433 8,050 195 275 -1536
2020-01-17 20:13:37 GMT 53.552998 -1.779300 8,175 196 275 -1728
2020-01-17 20:13:34 GMT 53.556198 -1.777823 8,225 196 275 -2432
2020-01-17 20:13:31 GMT 53.559586 -1.776254 8,400 196 275 -2496
2020-01-17 20:13:28 GMT 53.566681 -1.772999 8,600 196 278 -2432
2020-01-17 20:13:25 GMT 53.566681 -1.772999 8,625 196 279 -2368
2020-01-17 20:13:22 GMT 53.570984 -1.770996 8,700 196 280 -2368
2020-01-17 20:13:19 GMT 53.574738 -1.769203 9,175 196 284 -2432
2020-01-17 20:13:16 GMT 53.581814 -1.765971 9,250 195 286 -2624
2020-01-17 20:13:13 GMT 53.581814 -1.765971 9,075 195 286 -2560
2020-01-17 20:13:10 GMT 53.586044 -1.764090 9,175 195 288 -3008
2020-01-17 20:13:07 GMT 53.589493 -1.762579 9,400 194 290 -3264
2020-01-17 20:13:04 GMT 53.594196 -1.760721 9,400 194 290 -3264
2020-01-17 20:13:01 GMT 53.596802 -1.759670 9,625 192 291 -3328
2020-01-17 20:12:58 GMT 53.601040 -1.758297 9,725 192 291 -3392
2020-01-17 20:12:55 GMT 53.605320 -1.757409 10,600 166 305 -3456
2020-01-17 20:12:52 GMT 53.609894 -1.757106 10,200 173 301 -3584
2020-01-17 20:12:46 GMT 53.617470 -1.758378 10,600 166 305 -3456
2020-01-17 20:12:43 GMT 53.622665 -1.760559 11,025 161 307 -3328
2020-01-17 20:12:40 GMT 53.626419 -1.762835 10,900 156 309 -3328
2020-01-17 20:12:37 GMT 53.630585 -1.766052 11,000 154 310 -3200
2020-01-17 20:12:34 GMT 53.633392 -1.768637 11,175 148 312 -2240
2020-01-17 20:12:31 GMT 53.637722 -1.773484 11,250 145 314 -1856
2020-01-17 20:12:28 GMT 53.640747 -1.777274 11,400 141 315 -1856
2020-01-17 20:12:25 GMT 53.644192 -1.781966 11,425 140 314 -1920
2020-01-17 20:12:22 GMT 53.648026 -1.787240 11,575 140 314 -1856
2020-01-17 20:12:16 GMT 53.654663 -1.796579 15,375 69 355 -3072
2020-01-17 20:12:12 GMT 53.658737 -1.802464 11,775 139 315 -1728
2020-01-17 20:12:09 GMT 53.660995 -1.805878 11,900 137 314 -1856
2020-01-17 20:12:05 GMT 53.666443 -1.815087 12,100 129 315 -1920
2020-01-17 20:12:02 GMT 53.668808 -1.820042 12,125 129 315 -1920
2020-01-17 20:11:59 GMT 53.670731 -1.824751 12,225 122 314 -2112
2020-01-17 20:11:56 GMT 53.673241 -1.832132 12,575 116 314 -1920
2020-01-17 20:11:53 GMT 53.675034 -1.838797 12,425 112 313 -1728
2020-01-17 20:11:50 GMT 53.677525 -1.852246 12,600 104 313 -1408
2020-01-17 20:11:44 GMT 53.678688 -1.859840 12,650 103 314 -1536
2020-01-17 20:11:41 GMT 53.679703 -1.866970 12,700 103 314 -1536
2020-01-17 20:11:38 GMT 53.680939 -1.875523 12,850 103 317 -1344
2020-01-17 20:11:32 GMT 53.682831 -1.888517 12,925 103 318 -1280
2020-01-17 20:11:29 GMT 53.683868 -1.895691 13,000 103 319 -1344
2020-01-17 20:11:26 GMT 53.685112 -1.903947 13,075 103 320 -1472
2020-01-17 20:11:23 GMT 53.687393 -1.919538 13,375 103 321 -1600
2020-01-17 20:11:20 GMT 53.687393 -1.919538 13,275 103 321 -1600
2020-01-17 20:11:17 GMT 53.689209 -1.932059 13,425 103 322 -1472
2020-01-17 20:11:14 GMT 53.689209 -1.932059 13,475 103 323 -1216
2020-01-17 20:11:11 GMT 53.690231 -1.939006 13,550 103 325 -960
2020-01-17 20:11:08 GMT 53.691422 -1.947248 13,550 103 326 -768
2020-01-17 20:11:05 GMT 53.692375 -1.953547 13,575 103 327 -640
2020-01-17 20:11:02 GMT 53.693630 -1.962756 13,600 102 330 -384
2020-01-17 20:10:59 GMT 53.694561 -1.969784 13,600 101 335 -192
2020-01-17 20:10:54 GMT 53.696236 -1.985052 13,625 97 339 -320
2020-01-17 20:10:51 GMT 53.696751 -1.991595 13,650 95 342 -384
2020-01-17 20:10:48 GMT 53.697029 -1.997977 13,650 93 343 -448
2020-01-17 20:10:45 GMT 53.697098 -2.005790 13,675 90 345 -704
2020-01-17 20:10:42 GMT 53.696842 -2.014052 15,575 85 348 -768
2020-01-17 20:10:39 GMT 53.696331 -2.022696 13,750 83 351 -192
2020-01-17 20:10:36 GMT 53.695770 -2.030666 13,750 83 354 -128
2020-01-17 20:10:33 GMT 53.694580 -2.047224 13,800 82 358 -1472
2020-01-17 20:10:30 GMT 53.694077 -2.053894 13,875 82 359 -1984
2020-01-17 20:10:24 GMT 53.693165 -2.065753 14,025 82 361 -2560
2020-01-17 20:10:21 GMT 53.692429 -2.074062 14,225 77 358 -3328
2020-01-17 20:10:17 GMT 53.691513 -2.081752 14,400 77 358 -3328
2020-01-17 20:10:14 GMT 53.689636 -2.092425 14,600 69 355 -3008
2020-01-17 20:10:11 GMT 53.687943 -2.099644 14,750 64 353 -2880
2020-01-17 20:10:08 GMT 53.685379 -2.108590 15,025 58 352 -2432
2020-01-17 20:10:05 GMT 53.684273 -2.111879 14,975 58 352 -2432
2020-01-17 20:10:02 GMT 53.680435 -2.121460 15,200 51 351 -2496
2020-01-17 20:09:59 GMT 53.677139 -2.128209 15,300 47 351 -2752
2020-01-17 20:09:56 GMT 53.673981 -2.133623 15,300 45 350 -2880
2020-01-17 20:09:53 GMT 53.669842 -2.139668 15,575 37 347 -2880
2020-01-17 20:09:50 GMT 53.663048 -2.147423 15,750 32 345 -2752
2020-01-17 20:09:47 GMT 53.659424 -2.150731 16,000 19 347 -2496
2020-01-17 20:09:44 GMT 53.653473 -2.154968 16,000 22 342 -2752
2020-01-17 20:09:41 GMT 53.649902 -2.157244 16,200 19 343 -2496
2020-01-17 20:09:38 GMT 53.645451 -2.159944 16,275 19 342 -2496
2020-01-17 20:09:35 GMT 53.641022 -2.162580 16,425 19 344 -2368
2020-01-17 20:09:32 GMT 53.635071 -2.166112 16,500 19 344 -2368
2020-01-17 20:09:29 GMT 53.635071 -2.166112 17,075 19 346 -2496
2020-01-17 20:09:23 GMT 53.626175 -2.171496 16,850 19 346 -2560
2020-01-17 20:09:20 GMT 53.622894 -2.173488 17,000 19 347 -2304
2020-01-17 20:09:17 GMT 53.618355 -2.176262 17,150 19 347 -2432
2020-01-17 20:09:14 GMT 53.612595 -2.179766 17,225 19 348 -2496
2020-01-17 20:09:11 GMT 53.608673 -2.182159 17,325 20 349 -2496
2020-01-17 20:09:08 GMT 53.604080 -2.184945 17,400 20 349 -2496
2020-01-17 20:09:05 GMT 53.600803 -2.187006 17,550 20 350 -2432
2020-01-17 20:09:02 GMT 53.596207 -2.189889 17,625 20 351 -2688
2020-01-17 20:08:59 GMT 53.591122 -2.193065 17,825 20 351 -2688
2020-01-17 20:08:56 GMT 53.587399 -2.195408 17,925 20 351 -2560
2020-01-17 20:08:53 GMT 53.582794 -2.198286 17,975 20 352 -2432
2020-01-17 20:08:50 GMT 53.573090 -2.204407 18,250 20 353 -2624
2020-01-17 20:08:47 GMT 53.567242 -2.208010 18,400 20 353 -2496
2020-01-17 20:08:44 GMT 53.567242 -2.208010 18,475 20 353 -2496
2020-01-17 20:08:41 GMT 53.563564 -2.210271 18,650 19 355 -2816
2020-01-17 20:08:38 GMT 53.558945 -2.213117 18,750 19 354 -2688
2020-01-17 20:08:35 GMT 53.553089 -2.216653 18,850 19 354 -2944
2020-01-17 20:08:32 GMT 53.549149 -2.219003 19,125 19 356 -2560
2020-01-17 20:08:29 GMT 53.544754 -2.221671 19,125 19 355 -2816
2020-01-17 20:08:26 GMT 53.537933 -2.225673 19,400 19 356 -2560
2020-01-17 20:08:22 GMT 53.534561 -2.227720 19,400 19 356 -2560
2020-01-17 20:08:19 GMT 53.529236 -2.230931 19,475 19 356 -2432
2020-01-17 20:08:16 GMT 53.525204 -2.233294 19,625 19 357 -2368
2020-01-17 20:08:13 GMT 53.515942 -2.238868 20,150 19 360 -2048
2020-01-17 20:08:10 GMT 53.510468 -2.242153 19,950 19 361 -2176
2020-01-17 20:08:04 GMT 53.502274 -2.247096 20,125 19 363 -2240
2020-01-17 20:08:01 GMT 53.500717 -2.247997 20,275 19 364 -2240
2020-01-17 20:07:58 GMT 53.492203 -2.253139 20,500 19 365 -2368
2020-01-17 20:07:55 GMT 53.487450 -2.255994 20,550 20 366 -2560
2020-01-17 20:07:49 GMT 53.482040 -2.259338 20,750 20 368 -2368
2020-01-17 20:07:46 GMT 53.476822 -2.262556 20,900 20 369 -2304
2020-01-17 20:07:43 GMT 53.472977 -2.264910 21,050 20 371 -2560
2020-01-17 20:07:40 GMT 53.468269 -2.267869 21,050 20 371 -2560
2020-01-17 20:07:37 GMT 53.463318 -2.270874 21,250 20 371 -2752
2020-01-17 20:07:34 GMT 53.457191 -2.274655 21,475 20 372 -2816
2020-01-17 20:07:31 GMT 53.451977 -2.277886 21,550 20 372 -2816
2020-01-17 20:07:28 GMT 53.448719 -2.279905 21,625 20 373 -2816
2020-01-17 20:07:25 GMT 53.444641 -2.282410 21,725 20 373 -2688
2020-01-17 20:07:22 GMT 53.439194 -2.285706 21,875 19 374 -2624
2020-01-17 20:07:19 GMT 53.434895 -2.288307 22,000 19 375 -2496
2020-01-17 20:07:16 GMT 53.429680 -2.291457 22,100 19 376 -2368
2020-01-17 20:07:13 GMT 53.423767 -2.295012 22,250 19 377 -2176
2020-01-17 20:07:10 GMT 53.418507 -2.298243 22,350 19 378 -2304
2020-01-17 20:07:07 GMT 53.414551 -2.300586 22,425 19 379 -2240
2020-01-17 20:07:04 GMT 53.409027 -2.303911 22,525 19 381 -2368
2020-01-17 20:07:01 GMT 53.403030 -2.307443 22,725 19 381 -2432
2020-01-17 20:06:58 GMT 53.398956 -2.309875 22,875 19 383 -2560
2020-01-17 20:06:55 GMT 53.392960 -2.313328 22,975 19 383 -2560
2020-01-17 20:06:52 GMT 53.390621 -2.314722 23,125 19 383 -2496
2020-01-17 20:06:49 GMT 53.384663 -2.318277 23,550 19 387 -2240
2020-01-17 20:06:46 GMT 53.378906 -2.321647 23,300 19 385 -2496
2020-01-17 20:06:43 GMT 53.373909 -2.324659 23,475 19 386 -2304
2020-01-17 20:06:40 GMT 53.368462 -2.327890 23,850 20 388 -2240
2020-01-17 20:06:37 GMT 53.365112 -2.329909 23,650 20 388 -2240
2020-01-17 20:06:34 GMT 53.358501 -2.333948 23,750 20 389 -2304
2020-01-17 20:06:31 GMT 53.352962 -2.337422 23,925 20 391 -2368
2020-01-17 20:06:28 GMT 53.348648 -2.340009 24,000 20 391 -2432
2020-01-17 20:06:25 GMT 53.344116 -2.342834 24,075 20 391 -2432
2020-01-17 20:06:22 GMT 53.337799 -2.346680 24,300 19 392 -2496
2020-01-17 20:06:19 GMT 53.333221 -2.349459 24,425 19 393 -2432
2020-01-17 20:06:16 GMT 53.323334 -2.355390 24,575 19 394 -2240
2020-01-17 20:06:13 GMT 53.323334 -2.355390 24,625 19 394 -2176
2020-01-17 20:06:10 GMT 53.317154 -2.359157 24,725 19 395 -2112
2020-01-17 20:06:07 GMT 53.311996 -2.362222 24,875 19 396 -1920
2020-01-17 20:06:03 GMT 53.306454 -2.365534 24,975 19 396 -1920
2020-01-17 20:06:00 GMT 53.300217 -2.369250 25,100 19 399 -1664
2020-01-17 20:05:57 GMT 53.295376 -2.372077 25,150 19 400 -1600
2020-01-17 20:05:54 GMT 53.290146 -2.375087 25,225 18 400 -1536
2020-01-17 20:05:51 GMT 53.278885 -2.381444 25,475 17 408 -1728
2020-01-17 20:05:48 GMT 53.278885 -2.381444 25,450 18 404 -1472
2020-01-17 20:05:45 GMT 53.273987 -2.384190 25,450 18 405 -1536
2020-01-17 20:05:42 GMT 53.268608 -2.387103 25,600 18 406 -1920
2020-01-17 20:05:39 GMT 53.263580 -2.389849 25,625 18 406 -1856
2020-01-17 20:05:36 GMT 53.258694 -2.392515 25,750 17 407 -1728
2020-01-17 20:05:33 GMT 53.252472 -2.395883 25,800 17 408 -1728
2020-01-17 20:05:30 GMT 53.247101 -2.398735 25,875 18 410 -1728
2020-01-17 20:05:27 GMT 53.241852 -2.401611 25,975 18 410 -1728
2020-01-17 20:05:24 GMT 53.236347 -2.404633 26,025 18 410 -1792
2020-01-17 20:05:21 GMT 53.231972 -2.407137 26,150 18 412 -2048
2020-01-17 20:05:18 GMT 53.225639 -2.410691 26,250 19 412 -2176
2020-01-17 20:05:15 GMT 53.220566 -2.413599 26,275 19 413 -2240
2020-01-17 20:05:12 GMT 53.210129 -2.420131 26,525 20 413 -2176
2020-01-17 20:05:06 GMT 53.205093 -2.423662 26,675 23 415 -2112
2020-01-17 20:05:03 GMT 53.195801 -2.431210 26,850 28 417 -1920
2020-01-17 20:04:57 GMT 53.189701 -2.436945 26,950 41 429 -1536
2020-01-17 20:04:54 GMT 53.184490 -2.442438 27,225 35 422 -1664
2020-01-17 20:04:51 GMT 53.175247 -2.453404 27,175 36 424 -1728
2020-01-17 20:04:45 GMT 53.170055 -2.460453 27,350 41 428 -1600
2020-01-17 20:04:42 GMT 53.161560 -2.473493 27,450 44 430 -1536
2020-01-17 20:04:39 GMT 53.157394 -2.480729 27,525 46 432 -1536
2020-01-17 20:04:36 GMT 53.157394 -2.480729 27,550 47 433 -1536
2020-01-17 20:04:33 GMT 53.153870 -2.487148 27,650 50 437 -1536
2020-01-17 20:04:30 GMT 53.149155 -2.496329 27,700 50 437 -1536
2020-01-17 20:04:27 GMT 53.144485 -2.505511 27,800 49 438 -1536
2020-01-17 20:04:24 GMT 53.142014 -2.510454 27,900 49 438 -1536
2020-01-17 20:04:21 GMT 53.137299 -2.519793 27,900 49 438 -1472
2020-01-17 20:04:18 GMT 53.134186 -2.525992 28,950 49 441 -1600
2020-01-17 20:04:15 GMT 53.130116 -2.533964 28,050 49 439 -1600
2020-01-17 20:04:12 GMT 53.126175 -2.541765 28,150 49 439 -1600
2020-01-17 20:04:09 GMT 53.123318 -2.547374 28,200 49 440 -1472
2020-01-17 20:04:06 GMT 53.118301 -2.557225 28,250 49 440 -1408
2020-01-17 20:04:03 GMT 53.113541 -2.566485 28,400 49 441 -1600
2020-01-17 20:04:00 GMT 53.109119 -2.575163 28,475 49 441 -1600
2020-01-17 20:03:57 GMT 53.102184 -2.588734 28,550 49 442 -1600
2020-01-17 20:03:54 GMT 53.102184 -2.588734 28,600 49 442 -1600
2020-01-17 20:03:51 GMT 53.097996 -2.596974 28,725 49 444 -1792
2020-01-17 20:03:48 GMT 53.094498 -2.603760 28,850 49 445 -1792
2020-01-17 20:03:45 GMT 53.090546 -2.611607 28,900 50 446 -1536
2020-01-17 20:03:42 GMT 53.087475 -2.617728 28,950 51 448 -1472
2020-01-17 20:03:39 GMT 53.083466 -2.625961 29,000 51 449 -1472
2020-01-17 20:03:36 GMT 53.078720 -2.636483 29,050 53 450 -1472
2020-01-17 20:03:33 GMT 53.074860 -2.645586 29,125 55 453 -1472
2020-01-17 20:03:30 GMT 53.068153 -2.663321 29,300 59 457 -1408
2020-01-17 20:03:27 GMT 53.068153 -2.663321 29,350 61 458 -1472
2020-01-17 20:03:24 GMT 53.065685 -2.670698 29,400 62 459 -1536
2020-01-17 20:03:21 GMT 53.061729 -2.683175 29,600 63 461 -1600
2020-01-17 20:03:18 GMT 53.058838 -2.692566 29,550 63 460 -1536
2020-01-17 20:03:15 GMT 53.055771 -2.702637 29,600 63 461 -1600
2020-01-17 20:03:12 GMT 53.050095 -2.721405 29,750 63 461 -1600
2020-01-17 20:03:09 GMT 53.048126 -2.727966 29,800 71 466 -1408
2020-01-17 20:03:06 GMT 53.045296 -2.737479 29,900 65 463 -1536
2020-01-17 20:03:03 GMT 53.045296 -2.737479 29,950 64 462 -1536
2020-01-17 20:03:00 GMT 53.042221 -2.748108 30,000 65 463 -1536
2020-01-17 20:02:57 GMT 53.039944 -2.756627 30,125 68 465 -1536
2020-01-17 20:02:54 GMT 53.037941 -2.764631 30,450 69 465 -1536
2020-01-17 20:02:51 GMT 53.035290 -2.776716 30,250 71 466 -1408
2020-01-17 20:02:48 GMT 53.033295 -2.786865 30,275 73 465 -1472
2020-01-17 20:02:45 GMT 53.031189 -2.799072 30,350 74 467 -1408
2020-01-17 20:02:42 GMT 53.029469 -2.811087 30,450 77 467 -1472
2020-01-17 20:02:39 GMT 53.028633 -2.818072 30,500 78 467 -1472
2020-01-17 20:02:36 GMT 53.027748 -2.826625 30,525 80 467 -1344
2020-01-17 20:02:33 GMT 53.026749 -2.838669 30,600 84 470 -1408
2020-01-17 20:02:30 GMT 53.026154 -2.848740 30,650 84 470 -1408
2020-01-17 20:02:27 GMT 53.025604 -2.861710 30,850 87 473 -2560
2020-01-17 20:02:24 GMT 53.024963 -2.883453 31,025 87 474 -3200
2020-01-17 20:02:21 GMT 53.024734 -2.892151 33,600 113 478 -2560
2020-01-17 20:02:18 GMT 53.024734 -2.892151 31,250 87 473 -3840
2020-01-17 20:02:15 GMT 53.024441 -2.904471 31,475 87 473 -3904
2020-01-17 20:02:12 GMT 53.024277 -2.913742 31,675 88 471 -3712
2020-01-17 20:02:09 GMT 53.024021 -2.927699 31,775 89 470 -3648
2020-01-17 20:02:06 GMT 53.023911 -2.937088 32,000 90 470 -3584
2020-01-17 20:02:03 GMT 53.024002 -2.948608 32,175 91 470 -3520
2020-01-17 20:02:00 GMT 53.024231 -2.957230 32,250 92 469 -3584
2020-01-17 20:01:57 GMT 53.024815 -2.969369 32,500 95 468 -3392
2020-01-17 20:01:54 GMT 53.025696 -2.981491 32,675 98 469 -2688
2020-01-17 20:01:51 GMT 53.027069 -2.995682 32,950 101 471 -2304
2020-01-17 20:01:48 GMT 53.027847 -3.002396 32,925 102 471 -2176
2020-01-17 20:01:45 GMT 53.029221 -3.012619 33,250 113 458 448
2020-01-17 20:01:42 GMT 53.030777 -3.022461 33,125 113 468 1728
2020-01-17 20:01:39 GMT 53.032516 -3.032227 33,200 107 475 -1920
2020-01-17 20:01:36 GMT 53.035103 -3.044939 33,350 110 476 -2432
2020-01-17 20:01:33 GMT 53.037384 -3.054592 33,600 112 477 -2496
2020-01-17 20:01:30 GMT 53.039104 -3.061576 33,500 113 468 1728
2020-01-17 20:01:27 GMT 53.042599 -3.074995 33,950 113 478 -2496
2020-01-17 20:01:24 GMT 53.045345 -3.085432 33,875 113 478 -2496
2020-01-17 20:01:21 GMT 53.047394 -3.093185 34,000 113 479 -2304
2020-01-17 20:01:18 GMT 53.049671 -3.101911 35,075 113 475 -4352
2020-01-17 20:01:15 GMT 53.052704 -3.113327 34,250 113 480 -2752
2020-01-17 20:01:12 GMT 53.055862 -3.125458 34,375 113 480 -2752
2020-01-17 20:01:08 GMT 53.059261 -3.138323 34,750 113 477 -4288
2020-01-17 20:01:05 GMT 53.065224 -3.161159 34,925 113 477 -4288
2020-01-17 20:01:02 GMT 53.065224 -3.161159 35,275 113 467 -4032
2020-01-17 20:00:59 GMT 53.066990 -3.167829 35,275 113 473 -4416
2020-01-17 20:00:56 GMT 53.069916 -3.179169 36,250 113 466 -1344
2020-01-17 20:00:53 GMT 53.072708 -3.189774 35,700 113 468 -4352
2020-01-17 20:00:50 GMT 53.074448 -3.196335 35,875 113 467 -3968
2020-01-17 20:00:47 GMT 53.077698 -3.208793 36,075 113 466 -3136
2020-01-17 20:00:44 GMT 53.079746 -3.216718 36,150 113 465 -2880
2020-01-17 20:00:41 GMT 53.082001 -3.225174 36,475 113 465 -2368
2020-01-17 20:00:38 GMT 53.087128 -3.244858 36,500 113 466 -1280
2020-01-17 20:00:32 GMT 53.093262 -3.268204 36,525 113 458 448
2020-01-17 20:00:29 GMT 53.093262 -3.268204 36,625 113 467 -1088
2020-01-17 20:00:26 GMT 53.095901 -3.278369 36,625 113 468 -1024
2020-01-17 20:00:23 GMT 53.098320 -3.287578 36,700 113 468 -960
2020-01-17 20:00:20 GMT 53.100540 -3.296134 36,725 113 468 -832
2020-01-17 20:00:17 GMT 53.103653 -3.307983 36,800 113 468 -704
2020-01-17 20:00:14 GMT 53.105347 -3.314654 36,875 113 468 -896
2020-01-17 20:00:11 GMT 53.108780 -3.327837 36,850 113 468 -896
2020-01-17 20:00:08 GMT 53.113953 -3.347613 36,950 113 467 -960
2020-01-17 20:00:05 GMT 53.116196 -3.356242 36,975 113 466 -768
2020-01-17 20:00:02 GMT 53.118393 -3.364798 37,000 113 459 192
2020-01-17 19:59:59 GMT 53.121643 -3.377165 37,050 113 463 -960
2020-01-17 19:59:56 GMT 53.121643 -3.377165 37,075 113 462 -960
2020-01-17 19:59:53 GMT 53.125809 -3.393206 37,100 113 460 -512
2020-01-17 19:59:47 GMT 53.131046 -3.413355 37,100 113 458 448
2020-01-17 19:59:41 GMT 53.134071 -3.425069 37,025 113 458 832
2020-01-17 19:59:38 GMT 53.138947 -3.443900 36,975 113 459 960
2020-01-17 19:59:35 GMT 53.138947 -3.443900 36,925 113 459 1344
2020-01-17 19:59:32 GMT 53.141602 -3.454102 36,875 113 459 1344
2020-01-17 19:59:29 GMT 53.144127 -3.463925 36,775 113 460 1344
2020-01-17 19:59:26 GMT 53.147106 -3.475396 36,725 113 461 1344
2020-01-17 19:59:23 GMT 53.149155 -3.483312 36,725 113 461 1280
2020-01-17 19:59:20 GMT 53.151031 -3.490592 36,475 113 463 1600
2020-01-17 19:59:17 GMT 53.154510 -3.504073 36,600 113 462 1408
2020-01-17 19:59:13 GMT 53.156754 -3.512800 36,525 113 462 1408
2020-01-17 19:59:10 GMT 53.159821 -3.524571 36,425 113 463 1600
2020-01-17 19:59:07 GMT 53.161789 -3.532340 36,225 113 465 1728
2020-01-17 19:59:04 GMT 53.165588 -3.546936 36,150 113 466 1728
2020-01-17 19:59:00 GMT 53.168243 -3.557295 36,175 113 466 1728
2020-01-17 19:58:56 GMT 53.171356 -3.569301 35,950 113 469 1728
2020-01-17 19:58:53 GMT 53.175110 -3.583897 35,925 113 469 1664
2020-01-17 19:58:50 GMT 53.176949 -3.591075 35,825 113 471 1472
2020-01-17 19:58:46 GMT 53.179741 -3.601819 35,775 113 471 1344
2020-01-17 19:58:43 GMT 53.182442 -3.612402 35,725 113 472 1344
2020-01-17 19:58:40 GMT 53.185043 -3.622506 35,600 113 473 1408
2020-01-17 19:58:37 GMT 53.187981 -3.633890 35,425 113 474 1088
2020-01-17 19:58:34 GMT 53.190857 -3.645264 35,450 113 474 1088
2020-01-17 19:58:31 GMT 53.193970 -3.657349 35,425 113 474 960
2020-01-17 19:58:28 GMT 53.196030 -3.665353 35,375 113 473 576
2020-01-17 19:58:25 GMT 53.197849 -3.672423 35,375 113 473 384
2020-01-17 19:58:22 GMT 53.200687 -3.683409 35,375 113 471 384
2020-01-17 19:58:19 GMT 53.202896 -3.692113 34,875 113 471 448
2020-01-17 19:58:16 GMT 53.205715 -3.703120 35,325 113 470 512
2020-01-17 19:58:13 GMT 53.208344 -3.713457 35,275 113 469 1152
2020-01-17 19:58:10 GMT 53.211685 -3.726484 35,250 113 469 1024
2020-01-17 19:58:07 GMT 53.213791 -3.734567 35,175 113 469 1216
2020-01-17 19:58:04 GMT 53.216537 -3.745318 35,125 113 470 1280
2020-01-17 19:58:01 GMT 53.218704 -3.753851 35,075 113 470 1280
2020-01-17 19:57:58 GMT 53.220657 -3.761405 35,000 113 470 1344
2020-01-17 19:57:55 GMT 53.224411 -3.776236 34,875 113 470 1472
2020-01-17 19:57:52 GMT 53.226665 -3.784952 34,750 113 471 1536
2020-01-17 19:57:49 GMT 53.229218 -3.794913 34,750 113 471 1472
2020-01-17 19:57:46 GMT 53.231186 -3.802682 34,700 113 472 1472
2020-01-17 19:57:43 GMT 53.233788 -3.812983 34,425 112 473 1344
2020-01-17 19:57:40 GMT 53.237045 -3.825753 34,550 112 473 1344
2020-01-17 19:57:37 GMT 53.241440 -3.843018 34,400 113 472 384
2020-01-17 19:57:31 GMT 53.243980 -3.853051 34,375 112 473 576
2020-01-17 19:57:28 GMT 53.246449 -3.862664 34,350 113 472 384
2020-01-17 19:57:24 GMT 53.252918 -3.888029 34,325 113 470 768
2020-01-17 19:57:21 GMT 53.256454 -3.901951 34,275 113 470 768
2020-01-17 19:57:17 GMT 53.256454 -3.901951 34,250 113 470 832
2020-01-17 19:57:14 GMT 53.259018 -3.912102 34,075 112 470 768
2020-01-17 19:57:11 GMT 53.264091 -3.932055 34,175 112 470 768
2020-01-17 19:57:08 GMT 53.264091 -3.932055 34,100 112 469 832
2020-01-17 19:57:04 GMT 53.269863 -3.954674 34,050 112 469 960
2020-01-17 19:57:01 GMT 53.272564 -3.965337 33,975 113 468 1024
2020-01-17 19:56:58 GMT 53.275085 -3.975324 33,925 113 468 1024
2020-01-17 19:56:55 GMT 53.277592 -3.985210 33,900 113 468 768
2020-01-17 19:56:49 GMT 53.279755 -3.993687 33,875 113 467 704
2020-01-17 19:56:46 GMT 53.284996 -4.014210 33,825 113 466 512
2020-01-17 19:56:40 GMT 53.287743 -4.024874 33,775 113 464 384
2020-01-17 19:56:36 GMT 53.290768 -4.036668 33,725 113 462 576
2020-01-17 19:56:33 GMT 53.293259 -4.046500 33,725 113 461 576
2020-01-17 19:56:30 GMT 53.295795 -4.056379 33,650 113 460 896
2020-01-17 19:56:27 GMT 53.298496 -4.066799 33,650 113 460 1024
2020-01-17 19:56:24 GMT 53.301521 -4.078513 33,575 113 460 1344
2020-01-17 19:56:21 GMT 53.303696 -4.086993 33,475 113 460 2048
2020-01-17 19:56:18 GMT 53.306305 -4.097194 33,200 113 463 2560
2020-01-17 19:56:15 GMT 53.308598 -4.105898 33,275 113 463 2432
2020-01-17 19:56:12 GMT 53.310791 -4.114458 33,150 113 464 2624
2020-01-17 19:56:09 GMT 53.314178 -4.127563 33,000 113 466 2752
2020-01-17 19:56:06 GMT 53.315826 -4.133920 32,900 113 467 2688
2020-01-17 19:56:03 GMT 53.318790 -4.145481 32,750 112 469 2432
2020-01-17 19:56:00 GMT 53.322830 -4.162327 32,550 110 472 2048
2020-01-17 19:55:54 GMT 53.325729 -4.175047 32,450 110 473 1856
2020-01-17 19:55:51 GMT 53.330894 -4.198393 32,300 110 473 1600
2020-01-17 19:55:48 GMT 53.330894 -4.198393 32,100 110 475 1856
2020-01-17 19:55:45 GMT 53.332806 -4.206875 32,150 110 474 1792
2020-01-17 19:55:42 GMT 53.335373 -4.218593 32,075 110 475 1728
2020-01-17 19:55:39 GMT 53.337250 -4.226833 32,000 110 475 1728
2020-01-17 19:55:33 GMT 53.343742 -4.256152 31,800 110 477 1600
2020-01-17 19:55:27 GMT 53.348679 -4.278609 31,650 110 477 1152
2020-01-17 19:55:24 GMT 53.350662 -4.287571 31,600 110 476 1088
2020-01-17 19:55:18 GMT 53.353729 -4.301383 31,525 110 476 1024
2020-01-17 19:55:15 GMT 53.357712 -4.319275 31,475 110 476 1024
2020-01-17 19:55:12 GMT 53.357712 -4.319275 31,375 110 474 1152
2020-01-17 19:55:09 GMT 53.360271 -4.331037 31,375 110 474 1152
2020-01-17 19:55:06 GMT 53.362411 -4.340650 31,275 110 473 960
2020-01-17 19:55:03 GMT 53.365540 -4.354824 31,250 110 473 960
2020-01-17 19:55:00 GMT 53.366646 -4.359876 31,250 110 473 960
2020-01-17 19:54:57 GMT 53.368790 -4.369489 31,175 110 473 1024
2020-01-17 19:54:54 GMT 53.372223 -4.385193 31,125 110 472 1280
2020-01-17 19:54:51 GMT 53.376709 -4.405518 31,000 110 472 1344
2020-01-17 19:54:48 GMT 53.378174 -4.412188 30,950 110 472 1344
2020-01-17 19:54:45 GMT 53.380005 -4.420506 30,025 109 472 1280
2020-01-17 19:54:42 GMT 53.382431 -4.431728 30,800 110 471 1984
2020-01-17 19:54:36 GMT 53.387512 -4.454956 30,575 110 472 2048
2020-01-17 19:54:33 GMT 53.387512 -4.454956 30,525 110 473 1920
2020-01-17 19:54:30 GMT 53.389503 -4.463923 30,450 110 473 1920
2020-01-17 19:54:27 GMT 53.392044 -4.475673 30,275 110 473 1088
2020-01-17 19:54:23 GMT 53.395020 -4.489406 30,300 110 474 1472
2020-01-17 19:54:20 GMT 53.398815 -4.506576 30,200 110 473 1024
2020-01-17 19:54:14 GMT 53.401749 -4.520389 30,075 108 473 1344
2020-01-17 19:54:11 GMT 53.403145 -4.527256 30,025 107 472 1536
2020-01-17 19:54:08 GMT 53.407612 -4.550925 29,925 106 472 1600
2020-01-17 19:54:05 GMT 53.407612 -4.550925 29,875 106 472 1536
2020-01-17 19:54:02 GMT 53.409668 -4.562857 29,475 94 464 832
2020-01-17 19:53:59 GMT 53.410828 -4.570393 29,725 104 471 1408
2020-01-17 19:53:56 GMT 53.412548 -4.582026 29,675 103 471 1408
2020-01-17 19:53:53 GMT 53.414040 -4.593174 29,600 101 471 1344
2020-01-17 19:53:50 GMT 53.415154 -4.602060 29,500 100 471 1408
2020-01-17 19:53:47 GMT 53.416260 -4.611276 29,375 99 470 1152
2020-01-17 19:53:43 GMT 53.418835 -4.637846 29,350 97 468 832
2020-01-17 19:53:37 GMT 53.420414 -4.659334 29,300 95 465 832
2020-01-17 19:53:34 GMT 53.420414 -4.659334 29,250 94 463 960
2020-01-17 19:53:31 GMT 53.421116 -4.672017 29,225 94 463 960
2020-01-17 19:53:28 GMT 53.421570 -4.684099 29,150 93 461 960
2020-01-17 19:53:25 GMT 53.421844 -4.691476 29,100 93 461 1088
2020-01-17 19:53:22 GMT 53.422531 -4.712821 29,025 93 460 1344
2020-01-17 19:53:19 GMT 53.423069 -4.727756 29,000 93 460 1536
2020-01-17 19:53:16 GMT 53.423347 -4.736077 28,750 93 459 1344
2020-01-17 19:53:13 GMT 53.423347 -4.736077 28,825 93 460 1664
2020-01-17 19:53:10 GMT 53.423626 -4.744720 28,750 93 459 1344
2020-01-17 19:53:07 GMT 53.423996 -4.755432 28,650 93 458 2240
2020-01-17 19:53:03 GMT 53.424557 -4.773075 28,600 93 458 0
2020-01-17 19:53:00 GMT 53.424820 -4.780936 28,550 93 458 2112
2020-01-17 19:52:57 GMT 53.425163 -4.791574 28,450 93 458 2240
2020-01-17 19:52:53 GMT 53.425690 -4.807617 28,275 93 459 1472
2020-01-17 19:52:50 GMT 53.426102 -4.820408 25,250 94 448 1664
2020-01-17 19:52:47 GMT 53.426285 -4.826294 28,150 93 458 1408
2020-01-17 19:52:44 GMT 53.426788 -4.840498 28,100 93 458 1472
2020-01-17 19:52:41 GMT 53.427063 -4.849051 27,900 93 458 1664
2020-01-17 19:52:38 GMT 53.427383 -4.858939 27,950 93 458 1664
2020-01-17 19:52:35 GMT 53.427750 -4.870161 27,825 93 457 1856
2020-01-17 19:52:32 GMT 53.428162 -4.882952 27,650 93 458 2240
2020-01-17 19:52:29 GMT 53.428391 -4.890093 27,550 93 458 2112
2020-01-17 19:52:26 GMT 53.428654 -4.899256 27,550 93 458 2240
2020-01-17 19:52:23 GMT 53.429169 -4.914766 27,400 92 459 1856
2020-01-17 19:52:17 GMT 53.429817 -4.936012 27,225 92 458 1600
2020-01-17 19:52:11 GMT 53.430450 -4.955226 27,100 92 458 1792
2020-01-17 19:52:08 GMT 53.430752 -4.965740 26,925 92 458 1984
2020-01-17 19:52:05 GMT 53.431541 -4.991347 26,850 93 457 2112
2020-01-17 19:52:01 GMT 53.431541 -4.991347 26,725 92 457 1856
2020-01-17 19:51:58 GMT 53.431778 -4.999093 26,550 92 457 1856
2020-01-17 19:51:55 GMT 53.432240 -5.013724 26,525 92 457 1792
2020-01-17 19:51:52 GMT 53.432518 -5.023822 26,400 92 456 1536
2020-01-17 19:51:49 GMT 53.432831 -5.034406 26,375 92 456 1536
2020-01-17 19:51:46 GMT 53.433060 -5.041469 26,225 92 454 1472
2020-01-17 19:51:43 GMT 53.433426 -5.054182 26,250 92 455 1408
2020-01-17 19:51:40 GMT 53.433636 -5.063162 24,475 94 422 1344
2020-01-17 19:51:37 GMT 53.433929 -5.073800 26,100 92 453 1472
2020-01-17 19:51:34 GMT 53.434341 -5.089181 26,000 92 452 1600
2020-01-17 19:51:31 GMT 53.434570 -5.097656 25,925 92 452 1664
2020-01-17 19:51:28 GMT 53.434799 -5.105974 25,850 92 451 1664
2020-01-17 19:51:25 GMT 53.435078 -5.116398 25,800 92 450 1728
2020-01-17 19:51:22 GMT 53.435486 -5.129752 25,725 93 450 1792
2020-01-17 19:51:19 GMT 53.435806 -5.138149 25,650 93 449 1792
2020-01-17 19:51:16 GMT 53.436291 -5.148630 25,550 94 449 1792
2020-01-17 19:51:12 GMT 53.437359 -5.170764 25,350 94 448 1728
2020-01-17 19:51:09 GMT 53.437920 -5.181831 25,300 94 448 1664
2020-01-17 19:51:06 GMT 53.437920 -5.181831 25,050 94 446 1536
2020-01-17 19:51:03 GMT 53.438431 -5.192575 25,175 94 447 1536
2020-01-17 19:51:00 GMT 53.438896 -5.202511 25,075 94 445 1600
2020-01-17 19:50:57 GMT 53.439407 -5.212124 24,925 94 445 1536
2020-01-17 19:50:54 GMT 53.439972 -5.223842 24,925 94 444 1472
2020-01-17 19:50:50 GMT 53.440613 -5.237261 24,750 94 442 1344
2020-01-17 19:50:46 GMT 53.441208 -5.249817 24,750 94 441 1280
2020-01-17 19:50:43 GMT 53.441803 -5.262059 24,700 94 439 960
2020-01-17 19:50:40 GMT 53.442261 -5.271554 24,650 94 439 960
2020-01-17 19:50:37 GMT 53.443134 -5.289755 24,575 94 434 704
2020-01-17 19:50:31 GMT 53.443737 -5.303084 24,525 94 430 576
2020-01-17 19:50:28 GMT 53.444595 -5.320757 24,500 94 427 704
2020-01-17 19:50:22 GMT 53.445183 -5.333378 24,425 94 422 1152
2020-01-17 19:50:18 GMT 53.445740 -5.345869 24,350 94 420 1664
2020-01-17 19:50:15 GMT 53.446159 -5.354139 24,225 94 419 2304
2020-01-17 19:50:12 GMT 53.446625 -5.364640 24,150 94 419 2560
2020-01-17 19:50:08 GMT 53.447250 -5.377965 23,950 94 419 2880
2020-01-17 19:50:05 GMT 53.447647 -5.386370 23,800 94 420 2944
2020-01-17 19:50:02 GMT 53.448074 -5.394915 23,675 94 421 2688
2020-01-17 19:49:59 GMT 53.449219 -5.419477 23,475 94 422 2752
2020-01-17 19:49:56 GMT 53.449219 -5.419477 23,350 94 424 2944
2020-01-17 19:49:49 GMT 53.450226 -5.440744 23,125 94 428 1920
2020-01-17 19:49:46 GMT 53.450546 -5.447414 23,000 94 427 1792
2020-01-17 19:49:43 GMT 53.450954 -5.456004 22,950 94 427 1792
2020-01-17 19:49:40 GMT 53.451557 -5.469172 22,850 94 425 1728
2020-01-17 19:49:34 GMT 53.453064 -5.502502 22,650 94 422 1792
2020-01-17 19:49:30 GMT 53.453064 -5.502502 22,600 94 422 1792
2020-01-17 19:49:27 GMT 53.453430 -5.510350 22,500 94 420 2048
2020-01-17 19:49:24 GMT 53.453838 -5.518691 22,425 94 420 1984
2020-01-17 19:49:21 GMT 53.455032 -5.545035 22,200 94 416 1792
2020-01-17 19:49:17 GMT 53.455032 -5.545035 21,675 94 416 1920
2020-01-17 19:49:11 GMT 53.455750 -5.561021 22,025 94 414 1856
2020-01-17 19:49:08 GMT 53.456402 -5.575319 21,875 94 413 2112
2020-01-17 19:49:05 GMT 53.457275 -5.595023 21,725 94 411 2624
2020-01-17 19:49:01 GMT 53.457275 -5.595023 21,625 94 411 2624
2020-01-17 19:48:57 GMT 53.457733 -5.605146 21,500 94 411 2688
2020-01-17 19:48:54 GMT 53.458355 -5.618295 21,300 94 411 2816
2020-01-17 19:48:49 GMT 53.459007 -5.632432 21,075 94 412 2880
2020-01-17 19:48:46 GMT 53.459381 -5.641793 20,950 94 412 2752
2020-01-17 19:48:43 GMT 53.459793 -5.650818 20,875 94 412 2752
2020-01-17 19:48:40 GMT 53.460171 -5.659009 20,700 94 412 2688
2020-01-17 19:48:36 GMT 53.460754 -5.672555 20,425 94 412 2624
2020-01-17 19:48:33 GMT 53.461304 -5.684012 20,350 94 412 2496
2020-01-17 19:48:29 GMT 53.462311 -5.707236 19,975 94 411 2368
2020-01-17 19:48:26 GMT 53.462311 -5.707236 20,000 94 410 2304
2020-01-17 19:48:23 GMT 53.462723 -5.716971 19,925 94 410 2304
2020-01-17 19:48:17 GMT 53.463615 -5.736560 19,700 94 408 2560
2020-01-17 19:48:14 GMT 53.464417 -5.754874 19,550 94 408 2816
2020-01-17 19:48:11 GMT 53.464417 -5.754874 19,425 94 407 2880
2020-01-17 19:48:07 GMT 53.464874 -5.765560 19,250 94 407 2880
2020-01-17 19:48:04 GMT 53.465240 -5.773708 19,175 94 407 2816
2020-01-17 19:48:00 GMT 53.465755 -5.785675 18,975 94 407 2560
2020-01-17 19:47:57 GMT 53.466293 -5.797407 18,825 94 406 2560
2020-01-17 19:47:53 GMT 53.466686 -5.806759 18,700 94 405 2624
2020-01-17 19:47:50 GMT 53.467247 -5.819361 18,500 94 405 2752
2020-01-17 19:47:47 GMT 53.467667 -5.828875 18,350 94 404 2816
2020-01-17 19:47:44 GMT 53.468410 -5.846908 18,175 94 404 2816
2020-01-17 19:47:38 GMT 53.468784 -5.855713 17,750 94 403 2624
2020-01-17 19:47:35 GMT 53.469269 -5.866150 17,775 94 403 2624
2020-01-17 19:47:32 GMT 53.469589 -5.873762 17,700 94 402 2560
2020-01-17 19:47:28 GMT 53.470093 -5.886161 17,550 94 402 2432
2020-01-17 19:47:25 GMT 53.470551 -5.896508 17,425 94 401 2432
2020-01-17 19:47:19 GMT 53.471764 -5.924862 17,125 94 399 2496
2020-01-17 19:47:13 GMT 53.472088 -5.932375 17,025 94 397 2496
2020-01-17 19:47:10 GMT 53.472519 -5.942897 16,725 94 394 2496
2020-01-17 19:47:06 GMT 53.472977 -5.953727 16,600 94 394 2496
2020-01-17 19:47:03 GMT 53.473438 -5.964284 16,500 94 392 2560
2020-01-17 19:47:00 GMT 53.473812 -5.973816 16,375 94 392 2624
2020-01-17 19:46:56 GMT 53.474277 -5.984883 16,200 93 390 2752
2020-01-17 19:46:52 GMT 53.474762 -5.996416 16,075 94 391 2688
2020-01-17 19:46:49 GMT 53.475300 -6.008714 15,800 93 388 2816
2020-01-17 19:46:46 GMT 53.475540 -6.014465 15,800 93 388 2816
2020-01-17 19:46:43 GMT 53.475952 -6.024708 15,600 93 387 2880
2020-01-17 19:46:40 GMT 53.476372 -6.035291 15,450 94 386 2944
2020-01-17 19:46:37 GMT 53.476730 -6.044128 14,000 93 379 2944
2020-01-17 19:46:32 GMT 53.477581 -6.064130 15,000 94 384 2944
2020-01-17 19:46:26 GMT 53.478420 -6.084325 14,000 93 379 2944
2020-01-17 19:46:22 GMT 53.478420 -6.084325 14,625 94 382 3008
2020-01-17 19:46:19 GMT 53.478886 -6.096120 14,500 94 382 3008
2020-01-17 19:46:16 GMT 53.479248 -6.104946 14,375 94 381 3072
2020-01-17 19:46:12 GMT 53.480072 -6.124956 13,850 93 378 3008
2020-01-17 19:46:09 GMT 53.480373 -6.132633 13,850 93 378 3008
2020-01-17 19:46:02 GMT 53.480888 -6.144266 13,550 93 377 3200
2020-01-17 19:45:59 GMT 53.481262 -6.154227 13,350 93 376 3200
2020-01-17 19:45:56 GMT 53.481583 -6.162388 13,200 93 375 3008
2020-01-17 19:45:52 GMT 53.482178 -6.176357 13,000 93 374 2944
2020-01-17 19:45:46 GMT 53.482864 -6.193699 12,825 93 373 2752
2020-01-17 19:45:42 GMT 53.483261 -6.203479 12,550 93 370 2816
2020-01-17 19:45:39 GMT 53.483551 -6.210728 12,425 93 370 2880
2020-01-17 19:45:36 GMT 53.483963 -6.221244 12,350 93 369 2944
2020-01-17 19:45:32 GMT 53.484753 -6.240154 12,075 93 368 2880
2020-01-17 19:45:26 GMT 53.485123 -6.250332 11,975 93 367 2880
2020-01-17 19:45:22 GMT 53.485565 -6.261108 11,625 93 365 2944
2020-01-17 19:45:19 GMT 53.485794 -6.266759 11,550 93 365 3072
2020-01-17 19:45:16 GMT 53.486252 -6.278059 11,325 93 364 3456
2020-01-17 19:45:11 GMT 53.486752 -6.289915 11,075 94 364 3456
2020-01-17 19:45:08 GMT 53.487122 -6.298383 10,900 94 363 3456
2020-01-17 19:45:05 GMT 53.487495 -6.307930 10,800 94 363 3392
2020-01-17 19:45:02 GMT 53.487946 -6.317453 10,275 94 362 2944
2020-01-17 19:44:59 GMT 53.488846 -6.337092 10,325 94 362 3008
2020-01-17 19:44:56 GMT 53.488846 -6.337092 10,150 94 361 2816
2020-01-17 19:44:52 GMT 53.489220 -6.343797 10,025 95 359 2688
2020-01-17 19:44:49 GMT 53.489639 -6.352060 9,925 95 358 2560
2020-01-17 19:44:46 GMT 53.490280 -6.363124 9,750 95 355 2240
2020-01-17 19:44:41 GMT 53.491058 -6.375131 9,650 80 327 832
2020-01-17 19:44:37 GMT 53.491699 -6.393337 9,475 91 344 1088
2020-01-17 19:44:29 GMT 53.490940 -6.408341 9,375 80 327 832
2020-01-17 19:44:26 GMT 53.490383 -6.413350 9,350 77 323 768
2020-01-17 19:44:23 GMT 53.488708 -6.422801 9,325 74 319 832
2020-01-17 19:44:20 GMT 53.487637 -6.427244 9,275 66 308 896
2020-01-17 19:44:16 GMT 53.485016 -6.435713 9,175 55 291 1152
2020-01-17 19:44:13 GMT 53.482700 -6.441300 9,150 53 287 1280
2020-01-17 19:44:08 GMT 53.478149 -6.450230 9,050 44 272 1152
2020-01-17 19:44:05 GMT 53.475128 -6.454782 9,000 38 263 1152
2020-01-17 19:44:00 GMT 53.471020 -6.459315 8,900 28 248 1536
2020-01-17 19:43:57 GMT 53.464233 -6.463885 8,700 13 229 2688
2020-01-17 19:43:51 GMT 53.461147 -6.464889 8,500 6 222 3264
2020-01-17 19:43:48 GMT 53.457146 -6.465373 8,325 1 218 3520
2020-01-17 19:43:45 GMT 53.455097 -6.465293 8,200 356 214 3584
2020-01-17 19:43:39 GMT 53.450115 -6.463838 7,900 345 209 3584
2020-01-17 19:43:35 GMT 53.445786 -6.461173 7,750 340 206 3648
2020-01-17 19:43:29 GMT 53.441711 -6.457293 7,300 327 202 3840
2020-01-17 19:43:25 GMT 53.437920 -6.452691 6,975 321 201 3648
2020-01-17 19:43:19 GMT 53.434662 -6.447248 6,700 309 198 3456
2020-01-17 19:43:15 GMT 53.432327 -6.441127 6,525 299 195 3584
2020-01-17 19:43:09 GMT 53.430702 -6.433384 6,100 282 195 3584
2020-01-17 19:43:05 GMT 53.430054 -6.426275 5,800 276 195 3776
2020-01-17 19:42:59 GMT 53.429535 -6.418134 5,450 276 195 3712
2020-01-17 19:42:55 GMT 53.429119 -6.411330 5,175 277 194 3776
2020-01-17 19:42:49 GMT 53.428608 -6.402848 4,825 276 194 3776
2020-01-17 19:42:45 GMT 53.428116 -6.395455 4,550 276 192 3840
2020-01-17 19:42:37 GMT 53.427444 -6.384511 3,950 276 192 3840
2020-01-17 19:42:33 GMT 53.427155 -6.380075 3,825 276 192 3776
2020-01-17 19:42:28 GMT 53.426701 -6.372717 3,500 277 191 3776
2020-01-17 19:42:25 GMT 53.426239 -6.365400 3,375 277 191 3840
2020-01-17 19:42:17 GMT 53.425598 -6.354885 2,750 276 188 3200
2020-01-17 19:42:14 GMT 53.425369 -6.351353 2,625 276 187 3008
2020-01-17 19:42:08 GMT 53.424885 -6.343635 2,400 276 182 2240
2020-01-17 19:42:03 GMT 53.424419 -6.335961 2,150 276 156 960
2020-01-17 19:41:58 GMT 53.423676 -6.324247 2,150 276 156 960
2020-01-17 19:41:54 GMT 53.423676 -6.324247 2,125 276 153 1024
2020-01-17 19:41:48 GMT 53.423256 -6.317300 2,025 276 142 1280
2020-01-17 19:41:43 GMT 53.422977 -6.312130 1,925 274 130 1984
2020-01-17 19:41:38 GMT 53.422714 -6.306545 1,775 274 130 1984
2020-01-17 19:41:34 GMT 53.422440 -6.296735 1,600 273 126 2112
2020-01-17 19:41:27 GMT 53.422440 -6.296735 1,400 273 123 2560
2020-01-17 19:41:24 GMT 53.422348 -6.293361 1,275 273 123 2688
2020-01-17 19:41:17 GMT 53.421982 -6.282924 700 275 127 2816
2020-01-17 19:41:07 GMT 53.421719 -6.277232 400 275 130 3328
2020-01-17 19:40:52 GMT 53.420883 -6.261893 125 276 97 64
2020-01-17 19:40:47 GMT 53.420700 -6.258126 125 276 87 64
2020-01-17 19:40:35 GMT 53.420357 -6.252202 0 276 42 0
2020-01-17 19:40:26 GMT 53.420300 -6.250978 0 272 3
2020-01-17 19:40:16 GMT 53.420300 -6.250918 0 272 0
2020-01-17 19:40:02 GMT 53.420300 -6.250711 0 258 8
2020-01-17 19:39:55 GMT 53.420391 -6.250338 0 219 8
2020-01-17 19:39:46 GMT 53.420708 -6.250191 0 165 9
2020-01-17 19:39:36 GMT 53.421196 -6.250514 0 157 12
2020-01-17 19:39:25 GMT 53.421547 -6.250769 0 157 0
2020-01-17 19:39:15 GMT 53.421566 -6.250776 0 157 0
2020-01-17 19:38:20 GMT 53.421570 -6.250789 0 157 0
2020-01-17 19:38:00 GMT 53.421566 -6.250776 0 157 0
2020-01-17 19:37:50 GMT 53.421570 -6.250789 0 157 0
2020-01-17 19:37:30 GMT 53.421566 -6.250776 0 157 0
2020-01-17 19:37:15 GMT 53.421570 -6.250789 0 157 0
2020-01-17 19:37:00 GMT 53.421566 -6.250776 0 157 0
2020-01-17 19:36:49 GMT 53.421570 -6.250789 0 157 0
2020-01-17 19:36:30 GMT 53.421566 -6.250776 0 157 0
2020-01-17 19:36:04 GMT 53.421570 -6.250789 0 157 0
2020-01-17 19:35:59 GMT 53.421566 -6.250776 0 157 0
2020-01-17 19:35:49 GMT 53.421570 -6.250789 0 157 0
2020-01-17 19:35:42 GMT 53.421566 -6.250776 0 157 0
2020-01-17 19:35:32 GMT 53.421570 -6.250789 0 157 0
2020-01-17 19:35:22 GMT 53.421600 -6.250797 0 157 5
2020-01-17 19:35:10 GMT 53.421833 -6.250985 0 157 5
2020-01-17 19:35:01 GMT 53.421947 -6.251064 0 157 0
2020-01-17 19:34:51 GMT 53.422005 -6.251103 0 157 0
2020-01-17 19:34:27 GMT 53.422009 -6.251100 0 157 0
2020-01-17 19:34:00 GMT 53.422005 -6.251103 0 157 0
2020-01-17 19:33:50 GMT 53.422009 -6.251100 0 157 0
2020-01-17 19:33:40 GMT 53.422005 -6.251103 0 157 0
2020-01-17 19:33:23 GMT 53.422218 -6.251261 0 157 4
2020-01-17 19:33:19 GMT 53.422291 -6.251319 0 157 4
2020-01-17 19:33:07 GMT 53.422462 -6.251437 0 157 4
2020-01-17 19:32:55 GMT 53.422588 -6.251535 0 157 0
2020-01-17 19:32:44 GMT 53.422611 -6.251535 0 157 0
2020-01-17 19:32:24 GMT 53.422615 -6.251544 0 157 0
2020-01-17 19:31:54 GMT 53.422611 -6.251535 0 157 0
2020-01-17 19:31:48 GMT 53.422615 -6.251544 0 157 0
2020-01-17 19:31:38 GMT 53.422611 -6.251554 0 157 0
2020-01-17 19:31:28 GMT 53.422615 -6.251544 0 157 0
2020-01-17 19:31:18 GMT 53.422729 -6.251625 0 157 8
2020-01-17 19:31:05 GMT 53.423126 -6.251907 0 157 6
2020-01-17 19:30:57 GMT 53.423290 -6.252029 0 157 5
2020-01-17 19:28:35 GMT 53.423523 -6.252190 0 157 4
2020-01-17 19:28:25 GMT 53.423733 -6.252352 0 157 6
2020-01-17 19:28:14 GMT 53.424091 -6.252614 0 157 14
2020-01-17 19:28:05 GMT 53.424629 -6.252998 0 157 14
2020-01-17 19:27:54 GMT 53.425186 -6.253402 0 157 12
2020-01-17 19:27:44 GMT 53.425690 -6.253771 0 163 11
2020-01-17 19:27:34 GMT 53.426071 -6.253765 0 216 9
2020-01-17 19:27:23 GMT 53.426537 -6.253026 0 225 15
2020-01-17 19:26:51 GMT 53.426926 -6.252359 0 225 0
2020-01-17 19:26:22 GMT 53.426933 -6.252372 0 225 0
2020-01-17 19:26:08 GMT 53.426960 -6.252300 0 225 5
2020-01-17 19:25:59 GMT 53.427166 -6.251966 0 225 8
2020-01-17 19:25:51 GMT 53.427341 -6.251665 0 225 9
2020-01-17 19:25:42 GMT 53.427589 -6.251240 0 230 9
2020-01-17 19:25:32 GMT 53.427750 -6.250652 0 286 10
2020-01-17 19:25:22 GMT 53.427456 -6.250070 0 326 10
2020-01-17 19:25:12 GMT 53.427258 -6.249867 0 329 0
2020-01-17 19:25:02 GMT 53.427246 -6.249847 0 329 0
2020-01-17 19:24:32 GMT 53.427246 -6.249847 0 329 0
2020-01-17 19:24:07 GMT 53.427246 -6.249847 0 329 0
2020-01-17 19:23:56 GMT 53.427246 -6.249847 0 329 0
2020-01-17 19:23:41 GMT 53.427246 -6.249847 0 329 0
2020-01-17 19:23:36 GMT 53.427246 -6.249847 0 329 0
2020-01-17 19:23:26 GMT 53.427246 -6.249847 0 329 0
2020-01-17 19:23:16 GMT 53.427246 -6.249847 0 329 0
2020-01-17 19:23:06 GMT 53.427246 -6.249847 0 329 0
2020-01-17 19:22:56 GMT 53.427246 -6.249847 0 329 0
2020-01-17 19:22:36 GMT 53.427246 -6.249847 0 329 0
2020-01-17 19:22:26 GMT 53.427246 -6.249847 0 329 0
2020-01-17 19:22:16 GMT 53.427246 -6.249847 0 329 0
2020-01-17 19:22:06 GMT 53.427235 -6.249847 0 329 0
2020-01-17 19:21:56 GMT 53.427177 -6.249787 0 329 0
2020-01-17 19:21:49 GMT 53.427132 -6.249726 0 323 2
2020-01-17 19:21:38 GMT 53.427097 -6.249686 0 323 0
2020-01-17 19:21:28 GMT 53.427143 -6.249749 0 320 2
2020-01-17 19:21:18 GMT 53.427200 -6.249808 0 323 1
2020-01-17 19:21:08 GMT 53.427246 -6.249867 0 323 2
2020-01-17 19:20:58 GMT 53.427303 -6.249948 0 323 1
2020-01-17 19:20:48 GMT 53.427364 -6.249989 0 337 2
2020-01-17 19:20:37 GMT 53.427444 -6.249989 0 0 2
2020-01-17 19:20:28 GMT 53.427521 -6.249946 0 16 2
2020-01-17 19:20:17 GMT 53.427612 -6.249867 0 33 3
2020-01-17 19:20:07 GMT 53.427692 -6.249730 0 47 3
2020-01-17 19:19:57 GMT 53.427750 -6.249573 0 61 3
2020-01-17 19:19:47 GMT 53.427780 -6.249423 0 67 2
2020-01-17 19:19:36 GMT 53.427818 -6.249278 0 70 2
2020-01-17 19:19:27 GMT 53.427841 -6.249161 0 70 0

Making use of Plane Finder data

You are free to use the raw flight data, aircraft information and images provided in this report for your own purposes provided the data is correctly attributed to Plane Finder. We ask that you please credit Plane Finder and link to planefinder.net in close proximity to the content.

Optionally one of the following logos (no smaller then 150x24px) can be used and must link to planefinder.net

Embedding the Plane Finder map

You are welcome to embed the Plane Finder playback map on your website to offer visitors a more interactive experience. We suggest using the following HTML code:

<iframe src="//planefinder.net/data/report/BA4473-G-LCAB-7700-squawk-2020-01-17/map" width="800" height="600" seamless="seamless"></iframe>

Where our data comes from

Plane Finder has a global network of data feeds and antenna radars that receive data broadcast directly from aircraft. The primary technologies used are ADS-B and MLAT. We also show feeds from the FAA and a FLARM glider feed.

Click here to find out more about the Plane Finder network.

How we collect our data